Terminal Aerodrome Forecast
Issued by NWS

Home | Current Version | Previous Version | Text Only | Print | Product List | Glossary On
Versions: 1 2 3 4 5 6 7 8 9 10 11 12
540
FTUS44 KLIX 231134
TAFGPT
TAF
KGPT 231134Z 2312/2412 04004KT P6SM FEW040 FEW250
     FM231700 09008KT P6SM FEW045 FEW110
     FM232000 12009KT P6SM FEW050 SCT110
     FM240000 12005KT P6SM FEW045 SCT200
     FM240500 06004KT P6SM FEW045 FEW200=

USA.gov is the U.S. government's official web portal to all federal, state and local government web resources and services.